Aérodrome :
LOGIN :

S'inscrire | Disclaimer

   EN    FR    IT 

 










Légende :    VFR   VFR Marginal   IFR   IFR Intensif   IFR Très Intensif
Visi : 
Plafond : 
>= 8 km
>= 3000ft
5 à 8 km
1000 à 3000 ft
1500m à 5 km
500 à 1000 ft
800 à 1500m
200 à 500 ft
< 800m
< 200 ft
Symboles :   Orages  Brouillard  Fortes neiges  Fortes précipitations  Vent > 20 kt
SIGMETs :   Divers  Orages  Givrage  Turbulence  Onde Orograph.  Cendres Volcan.






- Altitude de l'aérodrome : 776 ft
- Code IATA : RMS


ETAR - Ramstein Air Base

DERNIER METAR :
  • 190439Z 27003KT 9999 -RA SCT007 BKN027 05/05 A2996 RMK AO2A RAB05E21DZB21E23RAB39 CIG 007V027 BKN V OVC SLP158 $

METARs EXPIRÉS :
  • 190423Z 28003KT 9999 OVC007 05/05 A2996 RMK AO2A RAB05E21DZB21E23 SLP158 $
  • 190405Z 00000KT 9999 -RA OVC009 05/05 A2996 RMK AO2A RAB05 SLP158 $
  • 190356Z 00000KT 9999 OVC009 05/05 A2995 RMK AO2A SLP154 T00500050 $
  • 190336Z 00000KT 9999 OVC010 05/05 A2996 RMK AO2A SLP158 $
  • 190316Z 26003KT 9999 OVC009 05/05 A2995 RMK AO2A OVC V BKN SLP154 $
  • 190256Z 00000KT 9999 BKN010 BKN041 05/05 A2995 RMK AO2A RAE02DZB02E03RAB14E24 CIG 010V041 BKN010 V SCT SLP154 P0000 60001 T00500050 52007 $
  • 190224Z 24004KT 9999 BKN010 05/05 A2995 RMK AO2A RAE02DZB02E03RAB14E24 BKN V OVC SLP154 $
  • 190214Z 23005KT 9999 -RA OVC010 05/05 A2995 RMK AO2A RAE02DZB02E03RAB14 SLP154 $
  • 190148Z AUTO 23005KT 9999 OVC010 05/05 A2995 RMK AO2 RAB00E22RAB26E48 CIG 010V012 SLP154 $

TAF TAF ETAR
Valide du 19 à 02h jusqu'au 20 à 08h UTC


190200Z 1902/2008 27006KT 9999 OVC010 QNH2995INS
TEMPO 1903/1906 6000 BR BKN009
BECMG 1907/1908 VRB06KT 9999 FEW015 SCT060 QNH3002INS
BECMG 1920/1921 8000 BR FEW020 QNH3007INS
BECMG 2003/2004 3200 BR BKN015 QNH3004INS TX07/1913Z TNM02/2002Z



MET'MAP, la Météo Aéronautique d'un coup d'oeil ! - Copyright ORBIFLY Décembre 2007 - Disclaimer

ORBIFLY MET'MAP TEAM :

Programmation & Développement : Alexandra Zaïnal
Conception & Développement : Baudouin d'Aumeries
Co-Programmation & Développement : Marc-Olivier Méhu
Soutien technique & logistique : Manuel Goepfert

Contact : metmap@orbifly.com




SOURCES & CREDITS :

   NOAA